sensor_id;sensor_type;location;lat;lon;timestamp;temperature;humidity
9323;DHT22;4700;48.822;9.270;2022-07-29T00:02:18;19.70;1.00
9323;DHT22;4700;48.822;9.270;2022-07-29T00:05:04;19.70;1.00
9323;DHT22;4700;48.822;9.270;2022-07-29T00:07:51;19.70;1.00
9323;DHT22;4700;48.822;9.270;2022-07-29T00:10:37;19.60;1.00
9323;DHT22;4700;48.822;9.270;2022-07-29T00:13:23;19.60;1.00
9323;DHT22;4700;48.822;9.270;2022-07-29T00:16:09;19.50;1.00
9323;DHT22;4700;48.822;9.270;2022-07-29T00:18:54;19.50;1.00
9323;DHT22;4700;48.822;9.270;2022-07-29T00:21:40;19.40;1.00
9323;DHT22;4700;48.822;9.270;2022-07-29T00:24:34;19.40;1.00
9323;DHT22;4700;48.822;9.270;2022-07-29T00:27:20;19.30;1.00
9323;DHT22;4700;48.822;9.270;2022-07-29T00:30:07;19.30;1.00
9323;DHT22;4700;48.822;9.270;2022-07-29T00:32:56;19.30;1.00
9323;DHT22;4700;48.822;9.270;2022-07-29T00:35:41;19.30;1.00
9323;DHT22;4700;48.822;9.270;2022-07-29T00:38:30;19.30;1.00
9323;DHT22;4700;48.822;9.270;2022-07-29T00:41:18;19.30;1.00
9323;DHT22;4700;48.822;9.270;2022-07-29T00:44:04;19.30;1.00
9323;DHT22;4700;48.822;9.270;2022-07-29T00:46:49;19.20;1.00
9323;DHT22;4700;48.822;9.270;2022-07-29T00:49:39;19.30;1.00
9323;DHT22;4700;48.822;9.270;2022-07-29T00:52:25;19.30;1.00
9323;DHT22;4700;48.822;9.270;2022-07-29T00:55:14;19.30;1.00
9323;DHT22;4700;48.822;9.270;2022-07-29T00:58:01;19.20;1.00
9323;DHT22;4700;48.822;9.270;2022-07-29T01:00:50;19.20;1.00
9323;DHT22;4700;48.822;9.270;2022-07-29T01:03:35;19.10;1.00
9323;DHT22;4700;48.822;9.270;2022-07-29T01:06:21;19.10;1.00
9323;DHT22;4700;48.822;9.270;2022-07-29T01:09:07;19.10;1.00
9323;DHT22;4700;48.822;9.270;2022-07-29T01:11:55;19.10;1.00
9323;DHT22;4700;48.822;9.270;2022-07-29T01:14:38;19.30;1.00
9323;DHT22;4700;48.822;9.270;2022-07-29T01:17:28;19.30;1.00
9323;DHT22;4700;48.822;9.270;2022-07-29T01:20:23;19.40;1.00
9323;DHT22;4700;48.822;9.270;2022-07-29T01:26:31;19.40;1.00
9323;DHT22;4700;48.822;9.270;2022-07-29T01:29:25;19.40;1.00
9323;DHT22;4700;48.822;9.270;2022-07-29T01:32:15;19.40;1.00
9323;DHT22;4700;48.822;9.270;2022-07-29T01:35:10;19.40;1.00
9323;DHT22;4700;48.822;9.270;2022-07-29T01:38:01;19.40;1.00
9323;DHT22;4700;48.822;9.270;2022-07-29T01:40:53;19.50;1.00
9323;DHT22;4700;48.822;9.270;2022-07-29T01:43:44;19.40;1.00
9323;DHT22;4700;48.822;9.270;2022-07-29T01:46:39;19.30;1.00
9323;DHT22;4700;48.822;9.270;2022-07-29T01:49:28;19.10;1.00
9323;DHT22;4700;48.822;9.270;2022-07-29T01:52:21;19.00;1.00
9323;DHT22;4700;48.822;9.270;2022-07-29T01:55:12;18.80;1.00
9323;DHT22;4700;48.822;9.270;2022-07-29T01:58:01;18.80;1.00
9323;DHT22;4700;48.822;9.270;2022-07-29T02:00:48;18.70;1.00
9323;DHT22;4700;48.822;9.270;2022-07-29T02:03:36;18.70;1.00
9323;DHT22;4700;48.822;9.270;2022-07-29T02:06:24;18.70;1.00
9323;DHT22;4700;48.822;9.270;2022-07-29T02:09:12;18.60;1.00
9323;DHT22;4700;48.822;9.270;2022-07-29T02:12:00;18.60;1.00
9323;DHT22;4700;48.822;9.270;2022-07-29T02:14:50;18.60;1.00
9323;DHT22;4700;48.822;9.270;2022-07-29T02:17:41;18.60;1.00
9323;DHT22;4700;48.822;9.270;2022-07-29T02:20:30;18.50;1.00
9323;DHT22;4700;48.822;9.270;2022-07-29T02:23:19;18.50;1.00
9323;DHT22;4700;48.822;9.270;2022-07-29T02:26:07;18.50;1.00
9323;DHT22;4700;48.822;9.270;2022-07-29T02:28:56;18.50;1.00
9323;DHT22;4700;48.822;9.270;2022-07-29T02:31:47;18.50;1.00
9323;DHT22;4700;48.822;9.270;2022-07-29T02:34:35;18.40;1.00
9323;DHT22;4700;48.822;9.270;2022-07-29T02:37:28;18.40;1.00
9323;DHT22;4700;48.822;9.270;2022-07-29T02:40:15;18.40;1.00
9323;DHT22;4700;48.822;9.270;2022-07-29T02:43:05;18.50;1.00
9323;DHT22;4700;48.822;9.270;2022-07-29T02:45:53;18.40;1.00
9323;DHT22;4700;48.822;9.270;2022-07-29T02:48:44;18.40;1.00
9323;DHT22;4700;48.822;9.270;2022-07-29T02:51:40;18.30;1.00
9323;DHT22;4700;48.822;9.270;2022-07-29T02:54:33;18.30;1.00
9323;DHT22;4700;48.822;9.270;2022-07-29T02:57:23;18.20;1.00
9323;DHT22;4700;48.822;9.270;2022-07-29T03:00:14;18.10;1.00
9323;DHT22;4700;48.822;9.270;2022-07-29T03:03:04;18.10;1.00
9323;DHT22;4700;48.822;9.270;2022-07-29T03:05:54;18.00;1.00
9323;DHT22;4700;48.822;9.270;2022-07-29T03:08:40;18.00;1.00
9323;DHT22;4700;48.822;9.270;2022-07-29T03:11:28;17.90;1.00
9323;DHT22;4700;48.822;9.270;2022-07-29T03:14:16;17.90;1.00
9323;DHT22;4700;48.822;9.270;2022-07-29T03:17:02;17.90;1.00
9323;DHT22;4700;48.822;9.270;2022-07-29T03:19:48;17.80;1.00
9323;DHT22;4700;48.822;9.270;2022-07-29T03:22:39;17.80;1.00
9323;DHT22;4700;48.822;9.270;2022-07-29T03:25:27;17.80;1.00
9323;DHT22;4700;48.822;9.270;2022-07-29T03:28:14;17.70;1.00
9323;DHT22;4700;48.822;9.270;2022-07-29T03:31:00;17.70;1.00
9323;DHT22;4700;48.822;9.270;2022-07-29T03:33:45;17.70;1.00
9323;DHT22;4700;48.822;9.270;2022-07-29T03:36:31;17.70;1.00
9323;DHT22;4700;48.822;9.270;2022-07-29T03:39:19;17.70;1.00
9323;DHT22;4700;48.822;9.270;2022-07-29T03:42:08;17.80;1.00
9323;DHT22;4700;48.822;9.270;2022-07-29T03:44:58;17.80;1.00
9323;DHT22;4700;48.822;9.270;2022-07-29T03:47:52;17.80;1.00
9323;DHT22;4700;48.822;9.270;2022-07-29T03:50:39;17.80;1.00
9323;DHT22;4700;48.822;9.270;2022-07-29T03:53:25;17.80;1.00
9323;DHT22;4700;48.822;9.270;2022-07-29T03:56:14;17.90;1.00
9323;DHT22;4700;48.822;9.270;2022-07-29T03:59:01;17.90;1.00
9323;DHT22;4700;48.822;9.270;2022-07-29T04:01:50;18.00;1.00
9323;DHT22;4700;48.822;9.270;2022-07-29T04:04:35;18.00;1.00
9323;DHT22;4700;48.822;9.270;2022-07-29T04:07:21;18.10;1.00
9323;DHT22;4700;48.822;9.270;2022-07-29T04:10:07;18.20;1.00
9323;DHT22;4700;48.822;9.270;2022-07-29T04:12:53;18.30;1.00
9323;DHT22;4700;48.822;9.270;2022-07-29T04:15:39;18.40;1.00
9323;DHT22;4700;48.822;9.270;2022-07-29T04:18:26;18.40;1.00
9323;DHT22;4700;48.822;9.270;2022-07-29T04:21:12;18.50;1.00
9323;DHT22;4700;48.822;9.270;2022-07-29T04:23:58;18.60;1.00
9323;DHT22;4700;48.822;9.270;2022-07-29T04:26:45;18.50;1.00
9323;DHT22;4700;48.822;9.270;2022-07-29T04:29:31;18.40;1.00
9323;DHT22;4700;48.822;9.270;2022-07-29T04:32:17;18.30;1.00
9323;DHT22;4700;48.822;9.270;2022-07-29T04:35:05;18.20;1.00
9323;DHT22;4700;48.822;9.270;2022-07-29T04:37:50;18.20;1.00
9323;DHT22;4700;48.822;9.270;2022-07-29T04:40:36;18.10;1.00
9323;DHT22;4700;48.822;9.270;2022-07-29T04:43:22;18.20;1.00
9323;DHT22;4700;48.822;9.270;2022-07-29T04:46:07;18.20;1.00
9323;DHT22;4700;48.822;9.270;2022-07-29T04:48:54;18.30;1.00
9323;DHT22;4700;48.822;9.270;2022-07-29T04:51:41;18.20;1.00
9323;DHT22;4700;48.822;9.270;2022-07-29T04:54:27;18.20;1.00
9323;DHT22;4700;48.822;9.270;2022-07-29T04:57:15;18.20;1.00
9323;DHT22;4700;48.822;9.270;2022-07-29T05:00:01;18.20;1.00
9323;DHT22;4700;48.822;9.270;2022-07-29T05:02:47;18.40;1.00
9323;DHT22;4700;48.822;9.270;2022-07-29T05:05:33;18.40;1.00
9323;DHT22;4700;48.822;9.270;2022-07-29T05:08:19;18.40;1.00
9323;DHT22;4700;48.822;9.270;2022-07-29T05:11:05;18.50;1.00
9323;DHT22;4700;48.822;9.270;2022-07-29T05:13:51;18.50;1.00
9323;DHT22;4700;48.822;9.270;2022-07-29T05:16:37;18.60;1.00
9323;DHT22;4700;48.822;9.270;2022-07-29T05:19:23;18.80;1.00
9323;DHT22;4700;48.822;9.270;2022-07-29T05:22:09;18.90;1.00
9323;DHT22;4700;48.822;9.270;2022-07-29T05:24:56;18.80;1.00
9323;DHT22;4700;48.822;9.270;2022-07-29T05:27:41;18.90;1.00
9323;DHT22;4700;48.822;9.270;2022-07-29T05:30:27;19.00;1.00
9323;DHT22;4700;48.822;9.270;2022-07-29T05:33:17;19.00;1.00
9323;DHT22;4700;48.822;9.270;2022-07-29T05:36:03;19.00;1.00
9323;DHT22;4700;48.822;9.270;2022-07-29T05:38:51;19.00;1.00
9323;DHT22;4700;48.822;9.270;2022-07-29T05:41:38;19.10;1.00
9323;DHT22;4700;48.822;9.270;2022-07-29T05:44:24;19.30;1.00
9323;DHT22;4700;48.822;9.270;2022-07-29T05:47:10;19.50;1.00
9323;DHT22;4700;48.822;9.270;2022-07-29T05:49:59;19.70;1.00
9323;DHT22;4700;48.822;9.270;2022-07-29T05:52:46;20.40;1.00
9323;DHT22;4700;48.822;9.270;2022-07-29T05:55:32;21.20;1.00
9323;DHT22;4700;48.822;9.270;2022-07-29T05:58:19;21.70;1.00
9323;DHT22;4700;48.822;9.270;2022-07-29T06:01:05;22.10;1.00
9323;DHT22;4700;48.822;9.270;2022-07-29T06:03:51;22.20;1.00
9323;DHT22;4700;48.822;9.270;2022-07-29T06:06:37;21.80;1.00
9323;DHT22;4700;48.822;9.270;2022-07-29T06:09:22;22.20;1.00
9323;DHT22;4700;48.822;9.270;2022-07-29T06:12:08;22.60;1.00
9323;DHT22;4700;48.822;9.270;2022-07-29T06:14:56;23.00;1.00
9323;DHT22;4700;48.822;9.270;2022-07-29T06:17:42;23.50;1.00
9323;DHT22;4700;48.822;9.270;2022-07-29T06:20:27;23.90;1.00
9323;DHT22;4700;48.822;9.270;2022-07-29T06:23:14;24.40;1.00
9323;DHT22;4700;48.822;9.270;2022-07-29T06:25:59;25.60;1.00
9323;DHT22;4700;48.822;9.270;2022-07-29T06:28:47;27.70;1.00
9323;DHT22;4700;48.822;9.270;2022-07-29T06:31:35;30.50;1.00
9323;DHT22;4700;48.822;9.270;2022-07-29T06:34:21;32.80;1.00
9323;DHT22;4700;48.822;9.270;2022-07-29T06:37:07;35.20;1.00
9323;DHT22;4700;48.822;9.270;2022-07-29T06:39:53;37.40;1.00
9323;DHT22;4700;48.822;9.270;2022-07-29T06:42:53;37.50;1.00
9323;DHT22;4700;48.822;9.270;2022-07-29T06:45:39;39.20;1.00
9323;DHT22;4700;48.822;9.270;2022-07-29T06:48:27;40.30;1.00
9323;DHT22;4700;48.822;9.270;2022-07-29T06:51:12;39.30;1.00
9323;DHT22;4700;48.822;9.270;2022-07-29T06:53:58;37.60;1.00
9323;DHT22;4700;48.822;9.270;2022-07-29T06:56:45;39.50;1.00
9323;DHT22;4700;48.822;9.270;2022-07-29T06:59:31;40.80;1.00
9323;DHT22;4700;48.822;9.270;2022-07-29T07:02:16;40.20;1.00
9323;DHT22;4700;48.822;9.270;2022-07-29T07:05:04;38.10;1.00
9323;DHT22;4700;48.822;9.270;2022-07-29T07:07:50;38.00;1.00
9323;DHT22;4700;48.822;9.270;2022-07-29T07:10:37;36.20;1.00
9323;DHT22;4700;48.822;9.270;2022-07-29T07:13:25;35.90;1.00
9323;DHT22;4700;48.822;9.270;2022-07-29T07:16:12;36.20;1.00
9323;DHT22;4700;48.822;9.270;2022-07-29T07:18:58;39.00;1.00
9323;DHT22;4700;48.822;9.270;2022-07-29T07:21:45;39.30;1.00
9323;DHT22;4700;48.822;9.270;2022-07-29T07:24:31;39.10;1.00
9323;DHT22;4700;48.822;9.270;2022-07-29T07:27:17;40.00;1.00
9323;DHT22;4700;48.822;9.270;2022-07-29T07:30:03;39.80;1.00
9323;DHT22;4700;48.822;9.270;2022-07-29T07:32:50;36.90;1.00
9323;DHT22;4700;48.822;9.270;2022-07-29T07:35:36;35.10;1.00
9323;DHT22;4700;48.822;9.270;2022-07-29T07:38:23;37.40;1.00
9323;DHT22;4700;48.822;9.270;2022-07-29T07:41:08;38.10;1.00
9323;DHT22;4700;48.822;9.270;2022-07-29T07:43:54;38.10;1.00
9323;DHT22;4700;48.822;9.270;2022-07-29T07:46:39;34.00;1.00
9323;DHT22;4700;48.822;9.270;2022-07-29T07:49:25;31.90;1.00
9323;DHT22;4700;48.822;9.270;2022-07-29T07:52:10;32.10;1.00
9323;DHT22;4700;48.822;9.270;2022-07-29T07:54:58;33.90;1.00
9323;DHT22;4700;48.822;9.270;2022-07-29T07:57:44;32.80;1.00
9323;DHT22;4700;48.822;9.270;2022-07-29T08:00:30;32.00;1.00
9323;DHT22;4700;48.822;9.270;2022-07-29T08:03:16;31.50;1.00
9323;DHT22;4700;48.822;9.270;2022-07-29T08:06:02;30.80;1.00
9323;DHT22;4700;48.822;9.270;2022-07-29T08:08:48;31.10;1.00
9323;DHT22;4700;48.822;9.270;2022-07-29T08:11:37;30.90;1.00
9323;DHT22;4700;48.822;9.270;2022-07-29T08:14:24;30.80;1.00
9323;DHT22;4700;48.822;9.270;2022-07-29T08:17:09;31.50;1.00
9323;DHT22;4700;48.822;9.270;2022-07-29T08:19:55;32.30;1.00
9323;DHT22;4700;48.822;9.270;2022-07-29T08:22:41;33.20;1.00
9323;DHT22;4700;48.822;9.270;2022-07-29T08:25:27;33.70;1.00
9323;DHT22;4700;48.822;9.270;2022-07-29T08:28:14;33.30;1.00
9323;DHT22;4700;48.822;9.270;2022-07-29T08:31:03;32.60;1.00
9323;DHT22;4700;48.822;9.270;2022-07-29T08:33:49;32.90;1.00
9323;DHT22;4700;48.822;9.270;2022-07-29T08:36:35;33.60;1.00
9323;DHT22;4700;48.822;9.270;2022-07-29T08:39:20;33.10;1.00
9323;DHT22;4700;48.822;9.270;2022-07-29T08:42:07;32.80;1.00
9323;DHT22;4700;48.822;9.270;2022-07-29T08:44:57;34.50;1.00
9323;DHT22;4700;48.822;9.270;2022-07-29T08:47:44;35.50;1.00
9323;DHT22;4700;48.822;9.270;2022-07-29T08:50:30;35.70;1.00
9323;DHT22;4700;48.822;9.270;2022-07-29T08:53:18;37.50;1.00
9323;DHT22;4700;48.822;9.270;2022-07-29T08:56:03;36.00;1.00
9323;DHT22;4700;48.822;9.270;2022-07-29T08:58:50;37.50;1.00
9323;DHT22;4700;48.822;9.270;2022-07-29T09:01:37;39.70;1.00
9323;DHT22;4700;48.822;9.270;2022-07-29T09:04:25;41.50;1.00
9323;DHT22;4700;48.822;9.270;2022-07-29T09:07:14;42.60;1.00
9323;DHT22;4700;48.822;9.270;2022-07-29T09:10:01;43.20;1.00
9323;DHT22;4700;48.822;9.270;2022-07-29T09:12:47;44.70;1.00
9323;DHT22;4700;48.822;9.270;2022-07-29T09:15:33;45.60;1.00
9323;DHT22;4700;48.822;9.270;2022-07-29T09:18:36;46.00;99.90
9323;DHT22;4700;48.822;9.270;2022-07-29T09:21:22;46.40;99.90
9323;DHT22;4700;48.822;9.270;2022-07-29T09:24:40;46.20;99.90
9323;DHT22;4700;48.822;9.270;2022-07-29T09:27:26;45.00;99.90
9323;DHT22;4700;48.822;9.270;2022-07-29T09:30:14;44.50;99.90
9323;DHT22;4700;48.822;9.270;2022-07-29T09:33:01;44.40;99.90
9323;DHT22;4700;48.822;9.270;2022-07-29T09:35:58;43.80;99.90
9323;DHT22;4700;48.822;9.270;2022-07-29T09:38:57;43.50;99.90
9323;DHT22;4700;48.822;9.270;2022-07-29T09:41:45;43.40;99.90
9323;DHT22;4700;48.822;9.270;2022-07-29T09:44:42;43.10;99.90
9323;DHT22;4700;48.822;9.270;2022-07-29T09:47:41;42.80;99.90
9323;DHT22;4700;48.822;9.270;2022-07-29T09:50:41;43.00;99.90
9323;DHT22;4700;48.822;9.270;2022-07-29T09:53:34;43.90;99.90
9323;DHT22;4700;48.822;9.270;2022-07-29T09:56:20;43.80;99.90
9323;DHT22;4700;48.822;9.270;2022-07-29T09:59:12;43.70;99.90
9323;DHT22;4700;48.822;9.270;2022-07-29T10:01:58;42.80;99.90
9323;DHT22;4700;48.822;9.270;2022-07-29T10:04:44;42.20;99.90
9323;DHT22;4700;48.822;9.270;2022-07-29T10:07:44;41.60;99.90
9323;DHT22;4700;48.822;9.270;2022-07-29T10:10:33;41.20;99.90
9323;DHT22;4700;48.822;9.270;2022-07-29T10:13:20;40.40;99.90
9323;DHT22;4700;48.822;9.270;2022-07-29T10:16:06;39.10;99.90
9323;DHT22;4700;48.822;9.270;2022-07-29T10:18:52;38.30;99.90
9323;DHT22;4700;48.822;9.270;2022-07-29T10:21:38;37.80;99.90
9323;DHT22;4700;48.822;9.270;2022-07-29T10:24:30;36.80;99.90
9323;DHT22;4700;48.822;9.270;2022-07-29T10:27:18;36.30;99.90
9323;DHT22;4700;48.822;9.270;2022-07-29T10:30:05;35.90;99.90
9323;DHT22;4700;48.822;9.270;2022-07-29T10:33:09;36.10;99.90
9323;DHT22;4700;48.822;9.270;2022-07-29T10:36:21;35.70;99.90
9323;DHT22;4700;48.822;9.270;2022-07-29T10:39:19;34.70;1.00
9323;DHT22;4700;48.822;9.270;2022-07-29T10:42:19;33.10;1.00
9323;DHT22;4700;48.822;9.270;2022-07-29T10:45:07;32.20;1.00
9323;DHT22;4700;48.822;9.270;2022-07-29T10:48:03;31.70;1.00
9323;DHT22;4700;48.822;9.270;2022-07-29T10:50:55;30.80;1.00
9323;DHT22;4700;48.822;9.270;2022-07-29T10:53:47;30.00;1.00
9323;DHT22;4700;48.822;9.270;2022-07-29T10:56:33;29.10;1.00
9323;DHT22;4700;48.822;9.270;2022-07-29T10:59:24;28.60;1.00
9323;DHT22;4700;48.822;9.270;2022-07-29T11:02:41;28.10;1.00
9323;DHT22;4700;48.822;9.270;2022-07-29T11:05:27;27.50;1.00
9323;DHT22;4700;48.822;9.270;2022-07-29T11:08:21;27.20;1.00
9323;DHT22;4700;48.822;9.270;2022-07-29T11:11:34;26.90;1.00
9323;DHT22;4700;48.822;9.270;2022-07-29T11:14:55;26.70;1.00
9323;DHT22;4700;48.822;9.270;2022-07-29T11:18:06;26.50;1.00
9323;DHT22;4700;48.822;9.270;2022-07-29T11:20:52;26.30;1.00
9323;DHT22;4700;48.822;9.270;2022-07-29T11:23:38;26.10;1.00
9323;DHT22;4700;48.822;9.270;2022-07-29T11:26:27;25.90;1.00
9323;DHT22;4700;48.822;9.270;2022-07-29T11:29:19;25.60;1.00
9323;DHT22;4700;48.822;9.270;2022-07-29T11:32:15;25.40;1.00
9323;DHT22;4700;48.822;9.270;2022-07-29T11:35:14;24.80;1.00
9323;DHT22;4700;48.822;9.270;2022-07-29T11:38:24;24.10;1.00
9323;DHT22;4700;48.822;9.270;2022-07-29T11:41:20;23.70;1.00
9323;DHT22;4700;48.822;9.270;2022-07-29T11:44:06;23.30;1.00
9323;DHT22;4700;48.822;9.270;2022-07-29T11:46:52;23.20;1.00
9323;DHT22;4700;48.822;9.270;2022-07-29T11:49:44;23.10;1.00
9323;DHT22;4700;48.822;9.270;2022-07-29T11:52:33;23.00;1.00
9323;DHT22;4700;48.822;9.270;2022-07-29T11:55:22;23.10;1.00
9323;DHT22;4700;48.822;9.270;2022-07-29T11:58:09;23.20;1.00
9323;DHT22;4700;48.822;9.270;2022-07-29T12:00:54;23.30;1.00
9323;DHT22;4700;48.822;9.270;2022-07-29T12:03:41;23.40;1.00
9323;DHT22;4700;48.822;9.270;2022-07-29T12:06:28;23.40;1.00
9323;DHT22;4700;48.822;9.270;2022-07-29T12:09:14;23.40;1.00
9323;DHT22;4700;48.822;9.270;2022-07-29T12:12:01;23.60;1.00
9323;DHT22;4700;48.822;9.270;2022-07-29T12:14:46;24.00;1.00
9323;DHT22;4700;48.822;9.270;2022-07-29T12:17:34;24.60;1.00
9323;DHT22;4700;48.822;9.270;2022-07-29T12:20:24;24.90;1.00
9323;DHT22;4700;48.822;9.270;2022-07-29T12:23:15;25.20;1.00
9323;DHT22;4700;48.822;9.270;2022-07-29T12:26:04;25.30;1.00
9323;DHT22;4700;48.822;9.270;2022-07-29T12:28:50;25.40;1.00
9323;DHT22;4700;48.822;9.270;2022-07-29T12:31:36;25.70;1.00
9323;DHT22;4700;48.822;9.270;2022-07-29T12:34:27;26.30;1.00
9323;DHT22;4700;48.822;9.270;2022-07-29T12:37:14;26.70;1.00
9323;DHT22;4700;48.822;9.270;2022-07-29T12:40:02;27.30;1.00
9323;DHT22;4700;48.822;9.270;2022-07-29T12:43:06;27.50;1.00
9323;DHT22;4700;48.822;9.270;2022-07-29T12:45:54;27.30;1.00
9323;DHT22;4700;48.822;9.270;2022-07-29T12:48:42;27.50;1.00
9323;DHT22;4700;48.822;9.270;2022-07-29T12:51:32;27.40;1.00
9323;DHT22;4700;48.822;9.270;2022-07-29T12:54:18;27.10;1.00
9323;DHT22;4700;48.822;9.270;2022-07-29T12:57:05;26.90;1.00
9323;DHT22;4700;48.822;9.270;2022-07-29T13:00:06;26.60;1.00
9323;DHT22;4700;48.822;9.270;2022-07-29T13:02:56;26.20;1.00
9323;DHT22;4700;48.822;9.270;2022-07-29T13:05:44;25.90;1.00
9323;DHT22;4700;48.822;9.270;2022-07-29T13:08:30;25.70;1.00
9323;DHT22;4700;48.822;9.270;2022-07-29T13:11:28;25.50;1.00
9323;DHT22;4700;48.822;9.270;2022-07-29T13:17:02;24.90;1.00
9323;DHT22;4700;48.822;9.270;2022-07-29T13:19:50;24.60;1.00
9323;DHT22;4700;48.822;9.270;2022-07-29T13:22:38;24.30;1.00
9323;DHT22;4700;48.822;9.270;2022-07-29T13:25:25;24.10;1.00
9323;DHT22;4700;48.822;9.270;2022-07-29T13:28:11;23.90;1.00
9323;DHT22;4700;48.822;9.270;2022-07-29T13:30:58;23.70;1.00
9323;DHT22;4700;48.822;9.270;2022-07-29T13:33:44;23.50;1.00
9323;DHT22;4700;48.822;9.270;2022-07-29T13:36:30;23.40;1.00
9323;DHT22;4700;48.822;9.270;2022-07-29T13:39:15;23.30;1.00
9323;DHT22;4700;48.822;9.270;2022-07-29T13:42:03;23.10;1.00
9323;DHT22;4700;48.822;9.270;2022-07-29T13:44:49;22.90;1.00
9323;DHT22;4700;48.822;9.270;2022-07-29T13:47:37;22.60;1.00
9323;DHT22;4700;48.822;9.270;2022-07-29T13:50:23;22.20;1.00
9323;DHT22;4700;48.822;9.270;2022-07-29T13:53:09;21.80;1.00
9323;DHT22;4700;48.822;9.270;2022-07-29T13:55:55;21.60;1.00
9323;DHT22;4700;48.822;9.270;2022-07-29T13:58:40;21.60;1.00
9323;DHT22;4700;48.822;9.270;2022-07-29T14:01:26;21.80;1.00
9323;DHT22;4700;48.822;9.270;2022-07-29T14:04:15;22.00;1.00
9323;DHT22;4700;48.822;9.270;2022-07-29T14:07:01;22.20;1.00
9323;DHT22;4700;48.822;9.270;2022-07-29T14:09:50;22.30;1.00
9323;DHT22;4700;48.822;9.270;2022-07-29T14:12:36;22.50;1.00
9323;DHT22;4700;48.822;9.270;2022-07-29T14:15:23;22.80;1.00
9323;DHT22;4700;48.822;9.270;2022-07-29T14:18:12;23.10;1.00
9323;DHT22;4700;48.822;9.270;2022-07-29T14:20:59;23.50;1.00
9323;DHT22;4700;48.822;9.270;2022-07-29T14:23:45;23.80;1.00
9323;DHT22;4700;48.822;9.270;2022-07-29T14:26:30;24.10;1.00
9323;DHT22;4700;48.822;9.270;2022-07-29T14:29:16;24.40;1.00
9323;DHT22;4700;48.822;9.270;2022-07-29T14:32:02;24.70;1.00
9323;DHT22;4700;48.822;9.270;2022-07-29T14:34:48;24.90;1.00
9323;DHT22;4700;48.822;9.270;2022-07-29T14:37:35;25.00;1.00
9323;DHT22;4700;48.822;9.270;2022-07-29T14:40:21;25.20;1.00
9323;DHT22;4700;48.822;9.270;2022-07-29T14:43:07;25.20;1.00
9323;DHT22;4700;48.822;9.270;2022-07-29T14:45:53;25.20;1.00
9323;DHT22;4700;48.822;9.270;2022-07-29T14:48:38;25.30;1.00
9323;DHT22;4700;48.822;9.270;2022-07-29T14:51:24;25.20;1.00
9323;DHT22;4700;48.822;9.270;2022-07-29T14:54:11;25.30;1.00
9323;DHT22;4700;48.822;9.270;2022-07-29T14:56:57;25.30;1.00
9323;DHT22;4700;48.822;9.270;2022-07-29T14:59:43;25.30;1.00
9323;DHT22;4700;48.822;9.270;2022-07-29T15:02:29;25.40;1.00
9323;DHT22;4700;48.822;9.270;2022-07-29T15:05:15;25.40;1.00
9323;DHT22;4700;48.822;9.270;2022-07-29T15:08:01;25.50;1.00
9323;DHT22;4700;48.822;9.270;2022-07-29T15:10:48;25.60;1.00
9323;DHT22;4700;48.822;9.270;2022-07-29T15:13:33;25.60;1.00
9323;DHT22;4700;48.822;9.270;2022-07-29T15:16:19;25.50;1.00
9323;DHT22;4700;48.822;9.270;2022-07-29T15:19:05;25.60;1.00
9323;DHT22;4700;48.822;9.270;2022-07-29T15:21:51;25.70;1.00
9323;DHT22;4700;48.822;9.270;2022-07-29T15:24:38;25.70;1.00
9323;DHT22;4700;48.822;9.270;2022-07-29T15:27:24;25.70;1.00
9323;DHT22;4700;48.822;9.270;2022-07-29T15:30:11;25.70;1.00
9323;DHT22;4700;48.822;9.270;2022-07-29T15:32:57;25.90;1.00
9323;DHT22;4700;48.822;9.270;2022-07-29T15:35:42;25.90;1.00
9323;DHT22;4700;48.822;9.270;2022-07-29T15:38:28;25.90;1.00
9323;DHT22;4700;48.822;9.270;2022-07-29T15:41:14;26.10;1.00
9323;DHT22;4700;48.822;9.270;2022-07-29T15:44:00;26.10;1.00
9323;DHT22;4700;48.822;9.270;2022-07-29T15:46:46;26.10;1.00
9323;DHT22;4700;48.822;9.270;2022-07-29T15:49:50;26.00;1.00
9323;DHT22;4700;48.822;9.270;2022-07-29T15:52:36;26.00;1.00
9323;DHT22;4700;48.822;9.270;2022-07-29T15:55:21;25.90;1.00
9323;DHT22;4700;48.822;9.270;2022-07-29T15:58:08;25.80;1.00
9323;DHT22;4700;48.822;9.270;2022-07-29T16:00:55;25.70;1.00
9323;DHT22;4700;48.822;9.270;2022-07-29T16:03:41;25.50;1.00
9323;DHT22;4700;48.822;9.270;2022-07-29T16:06:27;25.50;1.00
9323;DHT22;4700;48.822;9.270;2022-07-29T16:09:13;25.50;1.00
9323;DHT22;4700;48.822;9.270;2022-07-29T16:11:59;25.60;1.00
9323;DHT22;4700;48.822;9.270;2022-07-29T16:14:45;25.60;1.00
9323;DHT22;4700;48.822;9.270;2022-07-29T16:17:27;25.70;1.00
9323;DHT22;4700;48.822;9.270;2022-07-29T16:20:13;25.80;1.00
9323;DHT22;4700;48.822;9.270;2022-07-29T16:22:59;25.90;1.00
9323;DHT22;4700;48.822;9.270;2022-07-29T16:25:45;25.90;1.00
9323;DHT22;4700;48.822;9.270;2022-07-29T16:28:31;25.80;1.00
9323;DHT22;4700;48.822;9.270;2022-07-29T16:31:17;25.70;1.00
9323;DHT22;4700;48.822;9.270;2022-07-29T16:34:08;25.80;1.00
9323;DHT22;4700;48.822;9.270;2022-07-29T16:36:54;25.80;1.00
9323;DHT22;4700;48.822;9.270;2022-07-29T16:39:39;25.90;1.00
9323;DHT22;4700;48.822;9.270;2022-07-29T16:42:25;25.90;1.00
9323;DHT22;4700;48.822;9.270;2022-07-29T16:45:11;25.90;1.00
9323;DHT22;4700;48.822;9.270;2022-07-29T16:47:56;25.80;1.00
9323;DHT22;4700;48.822;9.270;2022-07-29T16:50:43;25.80;1.00
9323;DHT22;4700;48.822;9.270;2022-07-29T16:53:29;25.60;1.00
9323;DHT22;4700;48.822;9.270;2022-07-29T16:56:15;25.50;1.00
9323;DHT22;4700;48.822;9.270;2022-07-29T16:59:01;25.40;1.00
9323;DHT22;4700;48.822;9.270;2022-07-29T17:01:47;25.30;1.00
9323;DHT22;4700;48.822;9.270;2022-07-29T17:04:33;25.20;1.00
9323;DHT22;4700;48.822;9.270;2022-07-29T17:07:20;25.10;1.00
9323;DHT22;4700;48.822;9.270;2022-07-29T17:10:06;25.20;1.00
9323;DHT22;4700;48.822;9.270;2022-07-29T17:12:55;25.00;1.00
9323;DHT22;4700;48.822;9.270;2022-07-29T17:15:41;25.00;1.00
9323;DHT22;4700;48.822;9.270;2022-07-29T17:18:27;25.00;1.00
9323;DHT22;4700;48.822;9.270;2022-07-29T17:21:13;25.00;1.00
9323;DHT22;4700;48.822;9.270;2022-07-29T17:24:00;24.90;1.00
9323;DHT22;4700;48.822;9.270;2022-07-29T17:26:45;25.00;1.00
9323;DHT22;4700;48.822;9.270;2022-07-29T17:29:31;25.00;1.00
9323;DHT22;4700;48.822;9.270;2022-07-29T17:32:18;25.10;1.00
9323;DHT22;4700;48.822;9.270;2022-07-29T17:35:04;25.10;1.00
9323;DHT22;4700;48.822;9.270;2022-07-29T17:38:12;25.10;1.00
9323;DHT22;4700;48.822;9.270;2022-07-29T17:40:59;25.10;1.00
9323;DHT22;4700;48.822;9.270;2022-07-29T17:43:44;25.10;1.00
9323;DHT22;4700;48.822;9.270;2022-07-29T17:46:30;25.00;1.00
9323;DHT22;4700;48.822;9.270;2022-07-29T17:49:15;25.00;1.00
9323;DHT22;4700;48.822;9.270;2022-07-29T17:52:04;24.90;1.00
9323;DHT22;4700;48.822;9.270;2022-07-29T17:54:49;24.90;1.00
9323;DHT22;4700;48.822;9.270;2022-07-29T17:57:36;24.80;1.00
9323;DHT22;4700;48.822;9.270;2022-07-29T18:00:22;24.80;1.00
9323;DHT22;4700;48.822;9.270;2022-07-29T18:03:09;24.80;1.00
9323;DHT22;4700;48.822;9.270;2022-07-29T18:05:55;24.70;1.00
9323;DHT22;4700;48.822;9.270;2022-07-29T18:08:41;24.60;1.00
9323;DHT22;4700;48.822;9.270;2022-07-29T18:11:31;24.60;1.00
9323;DHT22;4700;48.822;9.270;2022-07-29T18:14:18;24.50;1.00
9323;DHT22;4700;48.822;9.270;2022-07-29T18:17:04;24.50;1.00
9323;DHT22;4700;48.822;9.270;2022-07-29T18:19:49;24.40;1.00
9323;DHT22;4700;48.822;9.270;2022-07-29T18:22:36;24.40;1.00
9323;DHT22;4700;48.822;9.270;2022-07-29T18:25:22;24.30;1.00
9323;DHT22;4700;48.822;9.270;2022-07-29T18:28:08;24.20;1.00
9323;DHT22;4700;48.822;9.270;2022-07-29T18:30:56;24.10;1.00
9323;DHT22;4700;48.822;9.270;2022-07-29T18:33:41;24.00;1.00
9323;DHT22;4700;48.822;9.270;2022-07-29T18:36:27;24.00;1.00
9323;DHT22;4700;48.822;9.270;2022-07-29T18:39:13;23.90;1.00
9323;DHT22;4700;48.822;9.270;2022-07-29T18:41:59;23.90;1.00